Главная страница
METAR-TAF:

METAR-TAF

Аэропорты :

Витязево

Анапа, Россия

широта: 44-54N, долгота: 037-19E, высота над уровнем моря: 53 м

Текущие метеонаблюдения

Эта сводка был подготовлена 22 минут назад, в 02:30 UTC
Ветер 2 Узел переменных направлений
Температура 19°C
Влажность 68%
Давление 1014 hPa
Видимость 10 км и более
Нет облачности ниже 1500 м, и нет кучево-дождевой облачности

METAR: URKA 210230Z VRB01MPS CAVOK 19/13 Q1014 R04/010070 RMK QFE757/1009

Время: 05:52 (02:52 UTC)

Прогноз

Эта сводка был подготовлена 55 минут назад, в 01:57 UTC
Прогноз действительный с 21-го 03 UTC до 22-го 03 UTC
Ветер 6 Узел от северо-восточный с порывами до 16 Узел
Видимость 10 км и более
Отдельные облака на высоте 3000 фута

TAF: URKA 210157Z 2103/2203 05003G08MPS 9999 SCT030

Метеонаблюдения и прогнозы для более 4000 аэропортов (сводки METAR и TAF).

Имеющиеся станции представлены на карте желтыми и красными точками.

Чтобы увидеть название станции, наведите на нее мышь.

Затем щелкните, чтобы увидеть метеонаблюдения и метеопрогнозы.

Управление картой: чтобы увеличить масштаб, щелкните зеленые кнопки с черным крестиком; чтобы уменьшить масштаб, щелкните зеленую кнопку с тире; для просмотра соседних карт щелкайте зеленые стрелки.


METAR-TAF: